Quincy, WA

10:04 PM PST on December 02, 2016 (GMT -0800)
SE Quincy | | Change Station

Elev 1280 ft 47.23 °N, 119.84 °W | Updated 1 second ago

Clear
Clear
32.5 °F
Feels Like 32 °F
N
2.2
Wind Variable Wind from SSW

Today
High -- | Low -- °F
--% Chance of Precip.
Yesterday
High -- | Low -- °F
Precip. -- in
Pressure 30.06 in
Visibility 10.0 miles
Clouds Clear
Windchill 32 °F
Dew Point 32 °F
Humidity 96%
Rainfall 0.00 in
Snow Depth Not available.
7:27 AM 4:10 PM
Waxing Crescent, 13% visible
METAR KEPH 030553Z AUTO 03005KT 10SM CLR 01/M02 A3002 RMK AO2 SLP180 T00061017 10028 21011 55003
Pressure 30.06 in
Visibility 10.0 miles
Clouds Clear
Windchill 32 °F
Dew Point 32 °F
Humidity 96%
Rainfall 0.00 in
Snow Depth Not available.
7:27 AM 4:10 PM
Waxing Crescent, 13% visible
METAR KEPH 030553Z AUTO 03005KT 10SM CLR 01/M02 A3002 RMK AO2 SLP180 T00061017 10028 21011 55003

10-Day Weather Forecast

Almanac

Astronomy

Dec. 02, 2016 Rise Set
Actual Time
Civil Twilight
Nautical Twilight
Astronomical Twilight
Moon
Length of Visible Light
Length of Day
Tomorrow will be .
, % of the Moon is Illuminated

Today's Extremes

State Highs State Lows

Community

WunderPhotos

Upload Photos

1,955,432 photos uploaded!

WunderBlog® & News

Nearby

Air Quality

  Air Quality AQ Index Pollutant
Not available.

Snow Depth

Station Depth Elevation

Earthquake Activity

City Distance Mag. Time & Date
Minimum magnitude displayed is 2.5.

Coastal Water Temperatures

Place Temperature

Stations

Nearby Weather Stations

Station Location Temp. Windchill Dew Point Humidity Wind Precip. Elev Updated Type
                   

Watches & Warnings

There are currently no watches in effect.